Terminal Aerodrome Forecast
Issued by NWS

Home | Current Version | Previous Version | Text Only | Print | Product List | Glossary On
Versions: 1 2 3 4 5 6 7 8 9 10 11 12 13 14 15
000
FTUS46 KSGX 271734
TAFSNA
TAF
KSNA 271734Z 2718/2818 21009KT P6SM FEW018 BKN200
     FM272000 24010G18KT P6SM BKN250
     FM280200 VRB06KT P6SM SCT015 SCT250=

USA.gov is the U.S. government's official web portal to all federal, state and local government web resources and services.